Historyczne dane pomiarowe

Dodano dane terminowe – wersja testowa.

Dane z okresu 1951-2019

Wersja bazy: 1.34 [2019-03-16, lista zmian], aktualizacja planowana na 2019-04-15

Dane meteo z obszaru Polski uzyskane na podstawie danych udostępnionych przez Instytut Meteorologii i Gospodarki Wodnej – Państwowy Instytut Badawczy.

 

Wybierz Datę:    

       

TemperaturaWilgotnośćWiatrCiśnienieOpadyŚniegCzas trwania zjawisk
 Stacja t tx tn tng RH VA  wxwx mslp ppp RRR   cm mm wxwxwxwxwxwxwx
1994-08-14 15.1 19.4 10.2- 64.8- 6.0 3.0---- 0.0------------
1994-08-13 15.9 21.4 12.5- 75.0- 6.3 1.7---- 2.6------------
1994-08-12 15.4 22.4 12.7- 88.5- 7.3 1.3---- 11.0------------
1994-08-11 18.8 24.8 15.6- 85.8- 6.7 2.3---- 2.0------------
1994-08-10 18.8 26.4 10.0- 67.3- 4.7 0.0---- 0.0------------
1994-08-09 18.3 22.6 15.1- 89.0- 8.0 3.0---- 2.0------------
1994-08-08 20.0 28.2 12.0- 74.3- 8.0 0.0---- 0.1------------
1994-08-07 20.0 28.9 15.1- 76.0- 7.0 0.7---- 0.0------------
1994-08-06 22.0 31.4 11.0- 65.3- 5.3 0.7---- 0.0------------
1994-08-05 21.1 28.1 12.0- 70.8- 2.7 0.0---- 0.0------------
1994-08-04 20.6 25.7 14.1- 78.0- 6.0 1.3---- 0.2------------
1994-08-03 20.6 29.4 13.1- 77.8- 5.7 2.0---- 4.0------------
1994-08-02 23.1 31.7 16.6- 77.0- 2.7 1.0---- 0.5------------
1994-08-01 22.2 33.1 15.1- 69.5- 4.0 0.0---- 0.0------------
1994-07-31 23.0 30.9 15.0- 63.3- 1.3 1.0---- 0.0------------
1994-07-30 22.5 30.4 12.0- 62.0- 0.7 0.0---- 0.0------------
1994-07-29 21.5 29.4 10.5- 55.8- 0.3 0.3---- 0.0------------
1994-07-28 22.9 32.4 11.5- 50.3- 1.3 0.0---- 0.0------------
1994-07-27 24.9 30.2 11.7- 54.5- 0.7 0.0---- 0.0------------
1994-07-26 23.0 31.9 12.2- 65.8- 0.3 0.7---- 0.0------------
1994-07-25 19.3 29.4 11.2- 64.5- 4.3 0.3---- 0.0------------
1994-07-24 18.9 28.1 12.0- 66.0- 0.7 0.0---- 0.0------------
1994-07-23 17.2 25.0 8.0- 66.8- 0.7 0.3---- 0.0------------
1994-07-22 16.5 25.0 8.0- 66.3- 1.0 0.0---- 0.0------------
1994-07-21 15.1 22.0 6.7- 70.3- 0.0 0.3---- 0.0------------
1994-07-20 16.2 20.2 10.3- 69.0- 3.0 0.3---- 0.0------------
1994-07-19 17.4 22.4 12.3- 73.8- 5.3 1.0---- 0.0------------
1994-07-18 18.5 23.4 14.4- 79.3- 3.3 0.0---- 7.9------------
1994-07-17 18.2 25.0 11.5- 80.5- 6.0 1.0---- 4.0------------
1994-07-16 18.1 26.9 10.9- 78.8- 3.3 0.0---- 0.0------------
1994-07-15 17.4 24.1 7.0- 77.3- 6.0 0.0---- 0.0------------
1994-07-14 17.2 25.9 13.0- 78.3- 4.3 1.3---- 35.0------------
1994-07-13 19.2 24.3 7.0- 68.8- 3.7 0.0---- 0.0------------
1994-07-12 17.5 22.4 12.0- 77.5- 4.0 0.0---- 0.0------------
1994-07-11 14.3 19.4 10.0- 84.3- 5.0 1.0---- 1.6------------
1994-07-10 11.8 14.0 9.7- 91.3- 6.7 0.0---- 2.2------------
1994-07-09 11.4 15.8 7.7- 85.8- 5.3 0.3---- 8.8------------
1994-07-08 15.9 19.4 11.0- 75.0- 4.0 0.0---- 0.0------------
1994-07-07 17.1 24.2 9.5- 79.5- 5.3 0.3---- 3.4------------
1994-07-06 18.4 23.3 13.2- 68.5- 2.0 0.3---- 0.0------------
1994-07-05 20.0 28.4 12.0- 83.3- 6.7 1.0---- 0.8------------
1994-07-04 17.5 26.9 9.5- 69.3- 2.0 0.0---- 0.0------------
1994-07-03 16.5 26.1 6.9- 62.3- 0.7 0.0---- 0.0------------
1994-07-02 17.1 23.7 9.4- 76.0- 1.7 0.7---- 0.0------------
1994-07-01 18.5 23.0 15.4- 74.0- 4.7 0.0---- 0.0------------
1994-06-30 20.6 24.7 15.9- 85.8- 4.7 0.0---- 2.0------------
1994-06-29 22.0 30.9 14.5- 75.3- 2.3 0.0---- 0.0------------
1994-06-28 22.9 30.4 15.5- 79.8- 3.0 0.0---- 0.0------------
1994-06-27 21.9 29.7 14.0- 79.0- 1.3 0.3---- 0.0------------
1994-06-26 22.0 29.1 13.0- 53.5- 0.7 0.0---- 0.0------------
1994-06-25 16.7 22.4 11.0- 62.5- 0.0 0.7---- 0.0------------
1994-06-24 14.0 20.0 5.0- 57.0- 1.0 2.0---- 0.0------------
1994-06-23 17.7 21.8 13.0- 66.8- 5.3 2.0---- 0.0------------
1994-06-22 16.4 25.5 8.9- 72.3- 3.3 1.0---- 0.1------------
1994-06-21 15.0 20.9 8.7- 71.0- 2.0 1.3---- 0.0------------
1994-06-20 17.3 22.3 9.8- 70.3- 4.3 2.3---- 0.0------------
1994-06-19 16.7 24.0 9.8- 47.5- 5.7 4.3---- 0.0------------
1994-06-18 10.8 20.9 3.0- 73.8- 6.0 3.7---- 11.2------------
1994-06-17 9.9 12.9 7.0- 87.5- 8.0 0.7---- 2.1------------
1994-06-16 11.3 15.4 5.5- 80.0- 6.3 2.0---- 2.8------------
382.2 ms

 

Źródłem pochodzenia danych jest Instytut Meteorologii i Gospodarki Wodnej – Państwowy Instytut Badawczy. Dane Instytutu Meteorologii i Gospodarki Wodnej – Państwowego Instytutu Badawczego zostały przetworzone.

Dane źródłowe można odnaleźć na stronie https://dane.imgw.pl